Terminal Aerodrome Forecast
Issued by NWS Pueblo, CO

Home | Current Version | Previous Version | Text Only | Print | Product List | Glossary On
Versions: 1 2 3 4 5 6 7 8 9 10 11 12 13 14 15 16 17 18
000
FTUS45 KPUB 162320
TAFCOS
TAF
KCOS 162320Z 1700/1724 36014KT P6SM -RA FEW020 BKN045 OVC060
     FM170100 05010G20KT 2SM -SHSN BR OVC010
     FM170500 15010KT 5SM -SHSN SCT010 BKN025
     FM171000 15006KT P6SM VCSH SCT020 BKN060
     FM171300 15006KT P6SM SCT060 SCT120
     FM171800 17012KT P6SM FEW120 SCT200=

USA.gov is the U.S. government's official web portal to all federal, state and local government web resources and services.